sensor_id;sensor_type;location;lat;lon;timestamp;pressure;altitude;pressure_sealevel;temperature;humidity
15678;BME280;7939;50.814;6.368;2023-01-30T00:00:07;100302.59;;;6.60;65.44
15678;BME280;7939;50.814;6.368;2023-01-30T00:02:34;100303.59;;;6.67;65.80
15678;BME280;7939;50.814;6.368;2023-01-30T00:05:00;100291.06;;;6.73;65.21
15678;BME280;7939;50.814;6.368;2023-01-30T00:07:27;100261.44;;;6.73;64.99
15678;BME280;7939;50.814;6.368;2023-01-30T00:09:53;100253.56;;;6.64;64.83
15678;BME280;7939;50.814;6.368;2023-01-30T00:12:21;100236.59;;;6.62;65.59
15678;BME280;7939;50.814;6.368;2023-01-30T00:14:48;100246.00;;;6.66;64.84
15678;BME280;7939;50.814;6.368;2023-01-30T00:17:15;100223.88;;;6.60;65.95
15678;BME280;7939;50.814;6.368;2023-01-30T00:19:41;100220.28;;;6.52;66.17
15678;BME280;7939;50.814;6.368;2023-01-30T00:22:08;100221.44;;;6.65;65.49
15678;BME280;7939;50.814;6.368;2023-01-30T00:24:35;100212.75;;;6.55;66.54
15678;BME280;7939;50.814;6.368;2023-01-30T00:27:01;100224.59;;;6.55;65.79
15678;BME280;7939;50.814;6.368;2023-01-30T00:29:29;100209.38;;;6.55;66.76
15678;BME280;7939;50.814;6.368;2023-01-30T00:31:56;100223.75;;;6.54;66.69
15678;BME280;7939;50.814;6.368;2023-01-30T00:34:22;100227.34;;;6.64;65.69
15678;BME280;7939;50.814;6.368;2023-01-30T00:36:49;100229.84;;;6.62;65.39
15678;BME280;7939;50.814;6.368;2023-01-30T00:39:15;100217.31;;;6.70;65.89
15678;BME280;7939;50.814;6.368;2023-01-30T00:41:42;100224.25;;;6.77;64.66
15678;BME280;7939;50.814;6.368;2023-01-30T00:44:26;100224.94;;;6.70;66.04
15678;BME280;7939;50.814;6.368;2023-01-30T00:47:12;100234.03;;;6.60;66.27
15678;BME280;7939;50.814;6.368;2023-01-30T00:49:38;100225.03;;;6.74;65.95
15678;BME280;7939;50.814;6.368;2023-01-30T00:52:06;100215.59;;;6.69;65.99
15678;BME280;7939;50.814;6.368;2023-01-30T00:54:33;100211.41;;;6.71;66.17
15678;BME280;7939;50.814;6.368;2023-01-30T00:57:00;100204.47;;;6.64;65.93
15678;BME280;7939;50.814;6.368;2023-01-30T00:59:26;100209.72;;;6.71;65.63
15678;BME280;7939;50.814;6.368;2023-01-30T01:01:53;100196.94;;;6.67;65.80
15678;BME280;7939;50.814;6.368;2023-01-30T01:04:21;100190.09;;;6.64;66.43
15678;BME280;7939;50.814;6.368;2023-01-30T01:06:47;100186.72;;;6.65;66.02
15678;BME280;7939;50.814;6.368;2023-01-30T01:09:14;100188.41;;;6.65;66.74
15678;BME280;7939;50.814;6.368;2023-01-30T01:11:41;100180.03;;;6.67;66.36
15678;BME280;7939;50.814;6.368;2023-01-30T01:14:07;100180.97;;;6.72;65.54
15678;BME280;7939;50.814;6.368;2023-01-30T01:16:34;100173.97;;;6.62;66.29
15678;BME280;7939;50.814;6.368;2023-01-30T01:19:02;100176.69;;;6.70;66.55
15678;BME280;7939;50.814;6.368;2023-01-30T01:21:30;100181.63;;;6.64;66.81
15678;BME280;7939;50.814;6.368;2023-01-30T01:23:58;100198.66;;;6.68;66.91
15678;BME280;7939;50.814;6.368;2023-01-30T01:26:25;100203.72;;;6.68;66.09
15678;BME280;7939;50.814;6.368;2023-01-30T01:28:53;100186.97;;;6.76;66.35
15678;BME280;7939;50.814;6.368;2023-01-30T01:31:20;100182.00;;;6.81;66.30
15678;BME280;7939;50.814;6.368;2023-01-30T01:33:48;100190.22;;;6.70;66.70
15678;BME280;7939;50.814;6.368;2023-01-30T01:36:14;100189.50;;;6.74;65.64
15678;BME280;7939;50.814;6.368;2023-01-30T01:38:42;100191.19;;;6.75;66.94
15678;BME280;7939;50.814;6.368;2023-01-30T01:41:10;100197.88;;;6.72;66.38
15678;BME280;7939;50.814;6.368;2023-01-30T01:43:38;100201.34;;;6.75;66.38
15678;BME280;7939;50.814;6.368;2023-01-30T01:46:27;100206.53;;;6.80;65.71
15678;BME280;7939;50.814;6.368;2023-01-30T01:48:57;100198.16;;;6.84;65.99
15678;BME280;7939;50.814;6.368;2023-01-30T01:51:28;100198.22;;;6.87;66.31
15678;BME280;7939;50.814;6.368;2023-01-30T01:54:01;100184.59;;;6.84;66.16
15678;BME280;7939;50.814;6.368;2023-01-30T01:56:30;100178.75;;;6.88;65.92
15678;BME280;7939;50.814;6.368;2023-01-30T01:59:01;100190.53;;;6.84;65.68
15678;BME280;7939;50.814;6.368;2023-01-30T02:01:29;100201.69;;;6.91;66.00
15678;BME280;7939;50.814;6.368;2023-01-30T02:03:59;100186.03;;;6.72;66.99
15678;BME280;7939;50.814;6.368;2023-01-30T02:06:28;100175.13;;;6.76;66.60
15678;BME280;7939;50.814;6.368;2023-01-30T02:09:01;100176.09;;;6.82;65.58
15678;BME280;7939;50.814;6.368;2023-01-30T02:11:33;100188.94;;;6.88;66.13
15678;BME280;7939;50.814;6.368;2023-01-30T02:14:02;100190.31;;;6.73;66.80
15678;BME280;7939;50.814;6.368;2023-01-30T02:16:29;100186.94;;;6.74;66.57
15678;BME280;7939;50.814;6.368;2023-01-30T02:18:56;100194.69;;;6.81;66.04
15678;BME280;7939;50.814;6.368;2023-01-30T02:22:00;100179.66;;;6.90;65.88
15678;BME280;7939;50.814;6.368;2023-01-30T02:24:58;100152.34;;;6.80;66.28
15678;BME280;7939;50.814;6.368;2023-01-30T02:27:52;100158.50;;;6.91;66.08
15678;BME280;7939;50.814;6.368;2023-01-30T02:30:50;100144.81;;;6.84;66.59
15678;BME280;7939;50.814;6.368;2023-01-30T02:33:25;100151.69;;;6.88;66.69
15678;BME280;7939;50.814;6.368;2023-01-30T02:35:59;100147.22;;;6.78;66.20
15678;BME280;7939;50.814;6.368;2023-01-30T02:38:37;100146.56;;;6.85;66.39
15678;BME280;7939;50.814;6.368;2023-01-30T02:41:14;100139.03;;;6.91;66.85
15678;BME280;7939;50.814;6.368;2023-01-30T02:43:53;100137.44;;;6.96;65.87
15678;BME280;7939;50.814;6.368;2023-01-30T02:46:24;100127.97;;;6.88;65.93
15678;BME280;7939;50.814;6.368;2023-01-30T02:48:55;100134.78;;;6.90;66.41
15678;BME280;7939;50.814;6.368;2023-01-30T02:51:27;100128.94;;;6.94;66.63
15678;BME280;7939;50.814;6.368;2023-01-30T02:53:55;100133.91;;;6.90;66.28
15678;BME280;7939;50.814;6.368;2023-01-30T02:56:22;100120.38;;;6.91;66.71
15678;BME280;7939;50.814;6.368;2023-01-30T02:58:54;100108.53;;;6.91;66.12
15678;BME280;7939;50.814;6.368;2023-01-30T03:01:47;100101.88;;;6.96;66.79
15678;BME280;7939;50.814;6.368;2023-01-30T03:04:29;100098.56;;;6.99;65.75
15678;BME280;7939;50.814;6.368;2023-01-30T03:07:11;100093.38;;;6.94;66.59
15678;BME280;7939;50.814;6.368;2023-01-30T03:09:47;100084.03;;;6.93;67.04
15678;BME280;7939;50.814;6.368;2023-01-30T03:12:21;100072.78;;;6.81;67.07
15678;BME280;7939;50.814;6.368;2023-01-30T03:14:54;100068.56;;;6.81;67.07
15678;BME280;7939;50.814;6.368;2023-01-30T03:17:26;100070.28;;;6.82;67.61
15678;BME280;7939;50.814;6.368;2023-01-30T03:19:54;100077.88;;;6.82;68.19
15678;BME280;7939;50.814;6.368;2023-01-30T03:22:21;100077.97;;;6.85;67.08
15678;BME280;7939;50.814;6.368;2023-01-30T03:24:49;100066.19;;;6.90;67.30
15678;BME280;7939;50.814;6.368;2023-01-30T03:27:17;100062.78;;;6.88;66.78
15678;BME280;7939;50.814;6.368;2023-01-30T03:29:44;100069.47;;;6.85;68.25
15678;BME280;7939;50.814;6.368;2023-01-30T03:32:11;100050.88;;;6.86;67.25
15678;BME280;7939;50.814;6.368;2023-01-30T03:34:39;100051.72;;;6.86;68.02
15678;BME280;7939;50.814;6.368;2023-01-30T03:37:06;100056.84;;;6.89;67.59
15678;BME280;7939;50.814;6.368;2023-01-30T03:39:32;100043.31;;;6.90;67.42
15678;BME280;7939;50.814;6.368;2023-01-30T03:41:59;100057.69;;;6.88;68.42
15678;BME280;7939;50.814;6.368;2023-01-30T03:44:25;100042.47;;;6.90;67.90
15678;BME280;7939;50.814;6.368;2023-01-30T03:46:52;100048.53;;;6.96;67.23
15678;BME280;7939;50.814;6.368;2023-01-30T03:49:19;100045.16;;;6.97;67.84
15678;BME280;7939;50.814;6.368;2023-01-30T03:51:47;100042.66;;;6.99;66.79
15678;BME280;7939;50.814;6.368;2023-01-30T03:54:13;100041.91;;;7.05;67.29
15678;BME280;7939;50.814;6.368;2023-01-30T03:56:40;100028.28;;;6.99;67.34
15678;BME280;7939;50.814;6.368;2023-01-30T03:59:07;100021.41;;;6.95;68.17
15678;BME280;7939;50.814;6.368;2023-01-30T04:01:33;100023.94;;;6.94;68.66
15678;BME280;7939;50.814;6.368;2023-01-30T04:04:00;100025.63;;;6.95;68.68
15678;BME280;7939;50.814;6.368;2023-01-30T04:06:26;100010.50;;;7.01;68.12
15678;BME280;7939;50.814;6.368;2023-01-30T04:08:54;100016.50;;;7.05;67.62
15678;BME280;7939;50.814;6.368;2023-01-30T04:11:21;100011.28;;;6.97;68.19
15678;BME280;7939;50.814;6.368;2023-01-30T04:13:47;100014.72;;;7.00;67.48
15678;BME280;7939;50.814;6.368;2023-01-30T04:16:17;100025.00;;;7.05;67.87
15678;BME280;7939;50.814;6.368;2023-01-30T04:18:44;100025.81;;;7.04;68.18
15678;BME280;7939;50.814;6.368;2023-01-30T04:21:10;99993.56;;;7.01;67.86
15678;BME280;7939;50.814;6.368;2023-01-30T04:23:37;100007.97;;;7.02;68.02
15678;BME280;7939;50.814;6.368;2023-01-30T04:26:07;100006.25;;;7.00;67.53
15678;BME280;7939;50.814;6.368;2023-01-30T04:28:34;100009.75;;;7.05;68.07
15678;BME280;7939;50.814;6.368;2023-01-30T04:31:01;99995.38;;;7.07;67.57
15678;BME280;7939;50.814;6.368;2023-01-30T04:33:28;99989.47;;;7.10;67.47
15678;BME280;7939;50.814;6.368;2023-01-30T04:35:55;99989.44;;;7.07;68.62
15678;BME280;7939;50.814;6.368;2023-01-30T04:38:23;100003.84;;;7.08;67.85
15678;BME280;7939;50.814;6.368;2023-01-30T04:40:51;99983.47;;;7.05;68.63
15678;BME280;7939;50.814;6.368;2023-01-30T04:43:21;99994.41;;;7.00;69.46
15678;BME280;7939;50.814;6.368;2023-01-30T04:45:48;99982.69;;;7.09;68.69
15678;BME280;7939;50.814;6.368;2023-01-30T04:48:16;99982.69;;;7.09;68.68
15678;BME280;7939;50.814;6.368;2023-01-30T04:50:47;99999.69;;;7.11;68.90
15678;BME280;7939;50.814;6.368;2023-01-30T04:53:14;100005.63;;;7.12;67.63
15678;BME280;7939;50.814;6.368;2023-01-30T04:55:41;100005.66;;;7.13;68.41
15678;BME280;7939;50.814;6.368;2023-01-30T04:58:07;100006.50;;;7.15;68.86
15678;BME280;7939;50.814;6.368;2023-01-30T05:00:35;99994.59;;;7.11;68.18
15678;BME280;7939;50.814;6.368;2023-01-30T05:03:02;99997.06;;;7.08;68.60
15678;BME280;7939;50.814;6.368;2023-01-30T05:05:30;99985.25;;;7.10;68.67
15678;BME280;7939;50.814;6.368;2023-01-30T05:07:57;99992.88;;;7.10;68.14
15678;BME280;7939;50.814;6.368;2023-01-30T05:10:24;100004.69;;;7.08;69.16
15678;BME280;7939;50.814;6.368;2023-01-30T05:12:50;99993.69;;;7.09;68.57
15678;BME280;7939;50.814;6.368;2023-01-30T05:15:17;99981.69;;;6.99;69.63
15678;BME280;7939;50.814;6.368;2023-01-30T05:17:45;99982.56;;;7.02;68.96
15678;BME280;7939;50.814;6.368;2023-01-30T05:20:12;99995.34;;;7.06;69.41
15678;BME280;7939;50.814;6.368;2023-01-30T05:22:39;99983.53;;;7.09;68.97
15678;BME280;7939;50.814;6.368;2023-01-30T05:25:06;99986.06;;;7.08;69.82
15678;BME280;7939;50.814;6.368;2023-01-30T05:27:33;99986.91;;;7.07;69.46
15678;BME280;7939;50.814;6.368;2023-01-30T05:30:00;99987.03;;;7.14;68.67
15678;BME280;7939;50.814;6.368;2023-01-30T05:32:26;99986.03;;;7.05;68.89
15678;BME280;7939;50.814;6.368;2023-01-30T05:34:56;99987.75;;;7.07;69.43
15678;BME280;7939;50.814;6.368;2023-01-30T05:37:23;100004.72;;;7.10;69.58
15678;BME280;7939;50.814;6.368;2023-01-30T05:39:50;99991.97;;;7.05;69.30
15678;BME280;7939;50.814;6.368;2023-01-30T05:42:16;99979.28;;;7.08;69.74
15678;BME280;7939;50.814;6.368;2023-01-30T05:44:43;99985.19;;;7.06;69.90
15678;BME280;7939;50.814;6.368;2023-01-30T05:47:10;100002.88;;;7.01;69.60
15678;BME280;7939;50.814;6.368;2023-01-30T05:49:36;99992.09;;;7.14;68.93
15678;BME280;7939;50.814;6.368;2023-01-30T05:52:04;99996.34;;;7.15;69.19
15678;BME280;7939;50.814;6.368;2023-01-30T05:54:31;99987.88;;;7.15;69.04
15678;BME280;7939;50.814;6.368;2023-01-30T05:56:57;100000.56;;;7.15;69.87
15678;BME280;7939;50.814;6.368;2023-01-30T05:59:24;99990.44;;;7.16;68.79
15678;BME280;7939;50.814;6.368;2023-01-30T06:01:50;99993.91;;;7.21;68.46
15678;BME280;7939;50.814;6.368;2023-01-30T06:04:17;99999.84;;;7.22;68.92
15678;BME280;7939;50.814;6.368;2023-01-30T06:06:43;99993.06;;;7.21;69.04
15678;BME280;7939;50.814;6.368;2023-01-30T06:09:11;99994.81;;;7.23;68.60
15678;BME280;7939;50.814;6.368;2023-01-30T06:11:38;99989.66;;;7.19;69.24
15678;BME280;7939;50.814;6.368;2023-01-30T06:14:04;99983.84;;;7.26;68.16
15678;BME280;7939;50.814;6.368;2023-01-30T06:16:31;99984.66;;;7.25;69.05
15678;BME280;7939;50.814;6.368;2023-01-30T06:18:57;99985.56;;;7.28;68.97
15678;BME280;7939;50.814;6.368;2023-01-30T06:21:24;99988.09;;;7.28;68.34
15678;BME280;7939;50.814;6.368;2023-01-30T06:23:50;99990.63;;;7.28;68.43
15678;BME280;7939;50.814;6.368;2023-01-30T06:26:19;99998.22;;;7.25;68.98
15678;BME280;7939;50.814;6.368;2023-01-30T06:28:45;99992.41;;;7.33;69.13
15678;BME280;7939;50.814;6.368;2023-01-30T06:31:12;99998.34;;;7.33;69.23
15678;BME280;7939;50.814;6.368;2023-01-30T06:33:39;100002.66;;;7.36;68.85
15678;BME280;7939;50.814;6.368;2023-01-30T06:36:06;100027.22;;;7.37;68.36
15678;BME280;7939;50.814;6.368;2023-01-30T06:38:33;100018.59;;;7.28;69.44
15678;BME280;7939;50.814;6.368;2023-01-30T06:40:59;100012.81;;;7.36;67.88
15678;BME280;7939;50.814;6.368;2023-01-30T06:43:27;100023.00;;;7.37;69.02
15678;BME280;7939;50.814;6.368;2023-01-30T06:45:54;100006.09;;;7.41;68.75
15678;BME280;7939;50.814;6.368;2023-01-30T06:48:20;100005.22;;;7.39;69.00
15678;BME280;7939;50.814;6.368;2023-01-30T06:50:47;100002.69;;;7.40;69.23
15678;BME280;7939;50.814;6.368;2023-01-30T06:53:13;100011.22;;;7.42;69.18
15678;BME280;7939;50.814;6.368;2023-01-30T06:55:40;100017.94;;;7.39;68.70
15678;BME280;7939;50.814;6.368;2023-01-30T06:58:08;100018.88;;;7.45;68.86
15678;BME280;7939;50.814;6.368;2023-01-30T07:00:37;100014.63;;;7.43;69.46
15678;BME280;7939;50.814;6.368;2023-01-30T07:03:05;100015.50;;;7.45;68.58
15678;BME280;7939;50.814;6.368;2023-01-30T07:05:31;100028.22;;;7.46;68.82
15678;BME280;7939;50.814;6.368;2023-01-30T07:07:58;100023.13;;;7.46;69.00
15678;BME280;7939;50.814;6.368;2023-01-30T07:10:25;100017.22;;;7.47;68.47
15678;BME280;7939;50.814;6.368;2023-01-30T07:12:53;100008.75;;;7.47;69.23
15678;BME280;7939;50.814;6.368;2023-01-30T07:15:20;100022.38;;;7.50;68.68
15678;BME280;7939;50.814;6.368;2023-01-30T07:17:47;100022.28;;;7.46;69.27
15678;BME280;7939;50.814;6.368;2023-01-30T07:20:14;100029.91;;;7.46;69.50
15678;BME280;7939;50.814;6.368;2023-01-30T07:22:41;100031.56;;;7.42;69.90
15678;BME280;7939;50.814;6.368;2023-01-30T07:25:08;100036.66;;;7.44;70.61
15678;BME280;7939;50.814;6.368;2023-01-30T07:27:34;100035.06;;;7.49;69.61
15678;BME280;7939;50.814;6.368;2023-01-30T07:30:01;100029.94;;;7.47;69.86
15678;BME280;7939;50.814;6.368;2023-01-30T07:32:28;100032.53;;;7.50;69.72
15678;BME280;7939;50.814;6.368;2023-01-30T07:34:56;100027.44;;;7.50;70.21
15678;BME280;7939;50.814;6.368;2023-01-30T07:37:23;100017.31;;;7.53;70.54
15678;BME280;7939;50.814;6.368;2023-01-30T07:39:50;100026.69;;;7.56;69.91
15678;BME280;7939;50.814;6.368;2023-01-30T07:42:16;100039.31;;;7.50;71.14
15678;BME280;7939;50.814;6.368;2023-01-30T07:44:43;100028.31;;;7.51;70.73
15678;BME280;7939;50.814;6.368;2023-01-30T07:47:10;100040.25;;;7.55;71.90
15678;BME280;7939;50.814;6.368;2023-01-30T07:49:36;100045.38;;;7.58;70.87
15678;BME280;7939;50.814;6.368;2023-01-30T07:52:04;100054.78;;;7.62;71.67
15678;BME280;7939;50.814;6.368;2023-01-30T07:54:31;100049.59;;;7.57;71.03
15678;BME280;7939;50.814;6.368;2023-01-30T07:56:58;100064.03;;;7.60;71.96
15678;BME280;7939;50.814;6.368;2023-01-30T07:59:25;100063.06;;;7.52;72.22
15678;BME280;7939;50.814;6.368;2023-01-30T08:01:51;100056.38;;;7.57;71.70
15678;BME280;7939;50.814;6.368;2023-01-30T08:04:18;100063.25;;;7.63;72.13
15678;BME280;7939;50.814;6.368;2023-01-30T08:06:45;100069.19;;;7.63;72.50
15678;BME280;7939;50.814;6.368;2023-01-30T08:09:13;100059.78;;;7.57;72.67
15678;BME280;7939;50.814;6.368;2023-01-30T08:11:39;100069.19;;;7.63;71.65
15678;BME280;7939;50.814;6.368;2023-01-30T08:14:06;100065.88;;;7.67;71.23
15678;BME280;7939;50.814;6.368;2023-01-30T08:16:33;100072.63;;;7.65;71.61
15678;BME280;7939;50.814;6.368;2023-01-30T08:19:03;100083.59;;;7.63;72.33
15678;BME280;7939;50.814;6.368;2023-01-30T08:21:30;100082.78;;;7.64;73.21
15678;BME280;7939;50.814;6.368;2023-01-30T08:23:57;100064.13;;;7.65;72.70
15678;BME280;7939;50.814;6.368;2023-01-30T08:26:25;100060.84;;;7.70;71.65
15678;BME280;7939;50.814;6.368;2023-01-30T08:28:52;100076.94;;;7.69;71.84
15678;BME280;7939;50.814;6.368;2023-01-30T08:31:20;100072.63;;;7.67;71.58
15678;BME280;7939;50.814;6.368;2023-01-30T08:33:47;100066.75;;;7.69;71.55
15678;BME280;7939;50.814;6.368;2023-01-30T08:36:13;100074.41;;;7.72;71.58
15678;BME280;7939;50.814;6.368;2023-01-30T08:38:40;100067.63;;;7.71;71.56
15678;BME280;7939;50.814;6.368;2023-01-30T08:41:06;100076.16;;;7.73;72.11
15678;BME280;7939;50.814;6.368;2023-01-30T08:43:35;100075.31;;;7.74;72.03
15678;BME280;7939;50.814;6.368;2023-01-30T08:46:02;100087.22;;;7.75;71.67
15678;BME280;7939;50.814;6.368;2023-01-30T08:48:28;100088.06;;;7.77;70.87
15678;BME280;7939;50.814;6.368;2023-01-30T08:50:55;100106.75;;;7.78;71.74
15678;BME280;7939;50.814;6.368;2023-01-30T08:53:22;100107.56;;;7.75;71.26
15678;BME280;7939;50.814;6.368;2023-01-30T08:55:49;100113.53;;;7.79;71.84
15678;BME280;7939;50.814;6.368;2023-01-30T08:58:16;100107.56;;;7.77;72.40
15678;BME280;7939;50.814;6.368;2023-01-30T09:00:44;100100.78;;;7.77;71.15
15678;BME280;7939;50.814;6.368;2023-01-30T09:03:11;100103.31;;;7.74;71.17
15678;BME280;7939;50.814;6.368;2023-01-30T09:05:38;100110.19;;;7.80;72.05
15678;BME280;7939;50.814;6.368;2023-01-30T09:08:05;100114.34;;;7.76;71.90
15678;BME280;7939;50.814;6.368;2023-01-30T09:10:32;100117.84;;;7.81;71.22
15678;BME280;7939;50.814;6.368;2023-01-30T09:12:59;100120.41;;;7.84;71.42
15678;BME280;7939;50.814;6.368;2023-01-30T09:15:26;100112.75;;;7.83;71.10
15678;BME280;7939;50.814;6.368;2023-01-30T09:17:54;100116.16;;;7.83;71.66
15678;BME280;7939;50.814;6.368;2023-01-30T09:20:21;100118.72;;;7.85;70.99
15678;BME280;7939;50.814;6.368;2023-01-30T09:22:48;100129.72;;;7.84;71.84
15678;BME280;7939;50.814;6.368;2023-01-30T09:25:14;100121.34;;;7.88;71.49
15678;BME280;7939;50.814;6.368;2023-01-30T09:27:41;100119.66;;;7.89;71.77
15678;BME280;7939;50.814;6.368;2023-01-30T09:30:10;100116.25;;;7.90;71.97
15678;BME280;7939;50.814;6.368;2023-01-30T09:32:37;100122.19;;;7.89;71.38
15678;BME280;7939;50.814;6.368;2023-01-30T09:35:05;100115.41;;;7.89;70.79
15678;BME280;7939;50.814;6.368;2023-01-30T09:37:33;100122.22;;;7.92;70.88
15678;BME280;7939;50.814;6.368;2023-01-30T09:39:59;100140.94;;;7.94;70.70
15678;BME280;7939;50.814;6.368;2023-01-30T09:45:42;100154.41;;;7.88;71.74
15678;BME280;7939;50.814;6.368;2023-01-30T09:48:16;100148.66;;;7.98;71.01
15678;BME280;7939;50.814;6.368;2023-01-30T09:50:59;100163.13;;;8.02;71.43
15678;BME280;7939;50.814;6.368;2023-01-30T09:53:34;100163.97;;;8.03;70.51
15678;BME280;7939;50.814;6.368;2023-01-30T09:56:04;100151.22;;;8.01;70.95
15678;BME280;7939;50.814;6.368;2023-01-30T09:58:40;100152.91;;;7.99;70.55
15678;BME280;7939;50.814;6.368;2023-01-30T10:01:16;100141.03;;;8.00;70.25
15678;BME280;7939;50.814;6.368;2023-01-30T10:03:57;100136.88;;;8.05;70.64
15678;BME280;7939;50.814;6.368;2023-01-30T10:06:29;100147.09;;;8.09;69.75
15678;BME280;7939;50.814;6.368;2023-01-30T10:09:02;100139.38;;;8.02;70.31
15678;BME280;7939;50.814;6.368;2023-01-30T10:11:45;100121.63;;;8.06;69.95
15678;BME280;7939;50.814;6.368;2023-01-30T10:14:32;100125.03;;;8.08;69.30
15678;BME280;7939;50.814;6.368;2023-01-30T10:17:07;100133.38;;;7.98;69.43
15678;BME280;7939;50.814;6.368;2023-01-30T10:19:50;100145.31;;;8.04;69.52
15678;BME280;7939;50.814;6.368;2023-01-30T10:22:30;100153.88;;;8.07;69.36
15678;BME280;7939;50.814;6.368;2023-01-30T10:25:11;100158.22;;;8.15;69.00
15678;BME280;7939;50.814;6.368;2023-01-30T10:27:49;100147.25;;;8.17;69.75
15678;BME280;7939;50.814;6.368;2023-01-30T10:30:17;100143.03;;;8.19;68.79
15678;BME280;7939;50.814;6.368;2023-01-30T10:32:47;100144.72;;;8.19;69.24
15678;BME280;7939;50.814;6.368;2023-01-30T10:35:19;100170.97;;;8.15;68.88
15678;BME280;7939;50.814;6.368;2023-01-30T10:37:55;100164.13;;;8.12;68.79
15678;BME280;7939;50.814;6.368;2023-01-30T10:40:28;100176.16;;;8.21;68.46
15678;BME280;7939;50.814;6.368;2023-01-30T10:43:02;100164.28;;;8.23;68.86
15678;BME280;7939;50.814;6.368;2023-01-30T10:45:36;100157.59;;;8.28;68.54
15678;BME280;7939;50.814;6.368;2023-01-30T10:48:23;100146.59;;;8.30;68.45
15678;BME280;7939;50.814;6.368;2023-01-30T10:50:57;100140.59;;;8.27;68.42
15678;BME280;7939;50.814;6.368;2023-01-30T10:53:32;100144.00;;;8.27;68.38
15678;BME280;7939;50.814;6.368;2023-01-30T10:56:04;100158.50;;;8.33;68.15
15678;BME280;7939;50.814;6.368;2023-01-30T10:58:40;100159.38;;;8.35;67.50
15678;BME280;7939;50.814;6.368;2023-01-30T11:01:14;100155.19;;;8.35;67.02
15678;BME280;7939;50.814;6.368;2023-01-30T11:03:45;100167.97;;;8.38;66.99
15678;BME280;7939;50.814;6.368;2023-01-30T11:06:15;100163.69;;;8.36;67.83
15678;BME280;7939;50.814;6.368;2023-01-30T11:08:44;100164.69;;;8.47;67.32
15678;BME280;7939;50.814;6.368;2023-01-30T11:11:24;100157.88;;;8.46;66.68
15678;BME280;7939;50.814;6.368;2023-01-30T11:14:01;100167.22;;;8.46;67.00
15678;BME280;7939;50.814;6.368;2023-01-30T11:16:29;100164.69;;;8.47;66.92
15678;BME280;7939;50.814;6.368;2023-01-30T11:18:56;100159.47;;;8.38;67.27
15678;BME280;7939;50.814;6.368;2023-01-30T11:21:28;100157.03;;;8.44;66.50
15678;BME280;7939;50.814;6.368;2023-01-30T11:24:03;100165.53;;;8.48;66.97
15678;BME280;7939;50.814;6.368;2023-01-30T11:26:33;100165.59;;;8.49;66.18
15678;BME280;7939;50.814;6.368;2023-01-30T11:29:14;100169.03;;;8.53;66.67
15678;BME280;7939;50.814;6.368;2023-01-30T11:31:41;100163.00;;;8.48;67.00
15678;BME280;7939;50.814;6.368;2023-01-30T11:34:13;100177.50;;;8.53;66.69
15678;BME280;7939;50.814;6.368;2023-01-30T11:36:41;100169.78;;;8.47;66.59
15678;BME280;7939;50.814;6.368;2023-01-30T11:39:20;100166.44;;;8.50;65.71
15678;BME280;7939;50.814;6.368;2023-01-30T11:41:57;100165.59;;;8.51;66.21
15678;BME280;7939;50.814;6.368;2023-01-30T11:44:27;100172.31;;;8.44;66.32
15678;BME280;7939;50.814;6.368;2023-01-30T11:46:57;100171.50;;;8.48;65.96
15678;BME280;7939;50.814;6.368;2023-01-30T11:49:29;100168.06;;;8.46;65.16
15678;BME280;7939;50.814;6.368;2023-01-30T11:51:58;100170.63;;;8.48;66.03
15678;BME280;7939;50.814;6.368;2023-01-30T11:54:29;100166.34;;;8.44;65.78
15678;BME280;7939;50.814;6.368;2023-01-30T11:56:57;100168.06;;;8.45;65.22
15678;BME280;7939;50.814;6.368;2023-01-30T11:59:30;100174.78;;;8.40;65.18
15678;BME280;7939;50.814;6.368;2023-01-30T12:02:12;100177.50;;;8.50;65.08
15678;BME280;7939;50.814;6.368;2023-01-30T12:04:42;100154.56;;;8.49;64.91
15678;BME280;7939;50.814;6.368;2023-01-30T12:07:16;100174.88;;;8.47;64.98
15678;BME280;7939;50.814;6.368;2023-01-30T12:09:47;100175.81;;;8.54;64.90
15678;BME280;7939;50.814;6.368;2023-01-30T12:12:27;100184.31;;;8.54;65.34
15678;BME280;7939;50.814;6.368;2023-01-30T12:15:02;100183.53;;;8.57;65.33
15678;BME280;7939;50.814;6.368;2023-01-30T12:17:35;100176.75;;;8.57;65.49
15678;BME280;7939;50.814;6.368;2023-01-30T12:20:13;100190.31;;;8.55;64.91
15678;BME280;7939;50.814;6.368;2023-01-30T12:22:46;100184.41;;;8.59;64.69
15678;BME280;7939;50.814;6.368;2023-01-30T12:25:19;100178.47;;;8.60;65.63
15678;BME280;7939;50.814;6.368;2023-01-30T12:27:55;100183.44;;;8.52;64.46
15678;BME280;7939;50.814;6.368;2023-01-30T12:30:32;100181.84;;;8.59;65.44
15678;BME280;7939;50.814;6.368;2023-01-30T12:33:03;100179.31;;;8.59;65.02
15678;BME280;7939;50.814;6.368;2023-01-30T12:35:43;100180.13;;;8.58;65.01
15678;BME280;7939;50.814;6.368;2023-01-30T12:38:22;100190.31;;;8.56;64.83
15678;BME280;7939;50.814;6.368;2023-01-30T12:41:01;100194.56;;;8.57;64.92
15678;BME280;7939;50.814;6.368;2023-01-30T12:43:45;100181.78;;;8.54;65.22
15678;BME280;7939;50.814;6.368;2023-01-30T12:46:27;100184.41;;;8.59;64.83
15678;BME280;7939;50.814;6.368;2023-01-30T12:49:13;100186.09;;;8.60;64.63
15678;BME280;7939;50.814;6.368;2023-01-30T12:51:55;100176.75;;;8.59;64.70
15678;BME280;7939;50.814;6.368;2023-01-30T12:54:35;100197.97;;;8.59;64.60
15678;BME280;7939;50.814;6.368;2023-01-30T12:57:13;100204.75;;;8.57;65.03
15678;BME280;7939;50.814;6.368;2023-01-30T12:59:49;100208.16;;;8.56;64.15
15678;BME280;7939;50.814;6.368;2023-01-30T13:02:30;100214.06;;;8.55;64.24
15678;BME280;7939;50.814;6.368;2023-01-30T13:05:15;100211.56;;;8.60;64.82
15678;BME280;7939;50.814;6.368;2023-01-30T13:07:53;100212.41;;;8.59;64.27
15678;BME280;7939;50.814;6.368;2023-01-30T13:10:30;100214.94;;;8.57;64.12
15678;BME280;7939;50.814;6.368;2023-01-30T13:13:09;100212.47;;;8.62;63.94
15678;BME280;7939;50.814;6.368;2023-01-30T13:15:44;100214.94;;;8.56;63.83
15678;BME280;7939;50.814;6.368;2023-01-30T13:18:19;100212.41;;;8.59;63.91
15678;BME280;7939;50.814;6.368;2023-01-30T13:20:54;100209.94;;;8.63;64.53
15678;BME280;7939;50.814;6.368;2023-01-30T13:23:33;100205.69;;;8.62;63.93
15678;BME280;7939;50.814;6.368;2023-01-30T13:26:06;100211.56;;;8.58;64.11
15678;BME280;7939;50.814;6.368;2023-01-30T13:28:38;100215.81;;;8.59;63.92
15678;BME280;7939;50.814;6.368;2023-01-30T13:31:09;100222.59;;;8.57;63.31